createdAt,value
2019-05-01T00:01:58.243Z,16.90
2019-05-01T00:07:07.219Z,15.07
2019-05-01T00:12:08.538Z,13.87
2019-05-01T00:17:09.974Z,14.03
2019-05-01T00:22:11.408Z,15.97
2019-05-01T00:27:12.772Z,13.87
2019-05-01T00:32:14.135Z,13.10
2019-05-01T00:37:15.479Z,11.70
2019-05-01T00:42:17.582Z,12.93
2019-05-01T00:47:18.945Z,14.23
2019-05-01T00:52:20.237Z,14.10
2019-05-01T00:57:22.461Z,12.80
2019-05-01T01:02:26.670Z,11.90
2019-05-01T01:07:28.104Z,12.17
2019-05-01T01:12:29.498Z,15.43
2019-05-01T01:17:30.841Z,13.80
2019-05-01T01:22:32.236Z,13.60
2019-05-01T01:27:33.611Z,13.73
2019-05-01T01:32:34.967Z,13.33
2019-05-01T01:37:36.308Z,17.17
2019-05-01T01:42:37.661Z,14.33
2019-05-01T01:53:08.839Z,15.13
2019-05-01T01:58:10.483Z,14.03
2019-05-01T02:03:12.614Z,12.50
2019-05-01T02:08:13.985Z,13.10
2019-05-01T02:13:15.343Z,14.00
2019-05-01T02:18:16.722Z,16.33
2019-05-01T02:23:18.148Z,13.43
2019-05-01T02:28:21.296Z,13.60
2019-05-01T02:33:22.674Z,14.70
2019-05-01T02:38:24.074Z,13.80
2019-05-01T02:43:26.001Z,13.60
2019-05-01T02:48:27.344Z,13.63
2019-05-01T02:53:28.705Z,11.53
2019-05-01T02:58:30.070Z,16.63
2019-05-01T03:03:31.436Z,12.63
2019-05-01T03:08:32.778Z,13.37
2019-05-01T03:13:34.211Z,13.03
2019-05-01T03:18:35.882Z,12.77
2019-05-01T03:23:43.031Z,11.30
2019-05-01T03:28:44.331Z,14.17
2019-05-01T03:33:45.757Z,15.57
2019-05-01T03:38:47.092Z,14.70
2019-05-01T03:43:49.190Z,13.20
2019-05-01T03:48:51.285Z,14.73
2019-05-01T03:53:52.732Z,13.23
2019-05-01T03:58:54.122Z,15.20
2019-05-01T04:04:00.481Z,14.43
2019-05-01T04:09:02.265Z,12.33
2019-05-01T04:14:03.703Z,15.67
2019-05-01T04:19:06.763Z,14.57
2019-05-01T04:24:08.096Z,15.20
2019-05-01T04:34:57.855Z,14.65
2019-05-01T04:39:59.177Z,13.23
2019-05-01T04:45:01.231Z,15.57
2019-05-01T04:50:02.579Z,15.47
2019-05-01T04:55:03.989Z,12.87
2019-05-01T05:00:05.365Z,12.10
2019-05-01T05:05:06.727Z,14.40
2019-05-01T05:10:08.097Z,14.07
2019-05-01T05:20:42.368Z,13.93
2019-05-01T05:25:45.050Z,11.93
2019-05-01T05:30:46.497Z,11.63
2019-05-01T05:35:48.614Z,13.77
2019-05-01T05:40:50.638Z,16.43
2019-05-01T05:45:52.124Z,14.30
2019-05-01T05:50:56.481Z,10.87
2019-05-01T05:55:58.655Z,9.87
2019-05-01T06:01:07.696Z,11.80
2019-05-01T06:06:16.434Z,11.97
2019-05-01T06:16:54.616Z,16.37
2019-05-01T06:27:25.936Z,14.47
2019-05-01T06:32:28.838Z,15.00
2019-05-01T06:43:13.451Z,14.57
2019-05-01T06:48:18.894Z,13.33
2019-05-01T06:53:19.984Z,12.77
2019-05-01T06:58:21.860Z,12.80
2019-05-01T07:03:22.670Z,14.50
2019-05-01T07:08:24.980Z,12.23
2019-05-01T07:13:25.413Z,13.33
2019-05-01T07:18:29.041Z,14.17
2019-05-01T07:23:28.250Z,10.60
2019-05-01T07:28:34.382Z,12.53
2019-05-01T07:33:31.092Z,13.47
2019-05-01T07:38:32.860Z,14.77
2019-05-01T07:43:36.757Z,12.70
2019-05-01T07:48:41.640Z,11.90
2019-05-01T07:53:39.555Z,13.83
2019-05-01T07:58:41.684Z,11.17
2019-05-01T08:03:44.126Z,14.20
2019-05-01T08:08:45.215Z,13.07
2019-05-01T08:13:47.271Z,10.33
2019-05-01T08:18:49.372Z,12.80
2019-05-01T08:23:50.713Z,12.03
2019-05-01T08:28:58.034Z,9.73
2019-05-01T08:34:01.305Z,12.00
2019-05-01T08:39:05.011Z,13.63
2019-05-01T08:44:03.997Z,12.30
2019-05-01T08:49:12.602Z,13.53
2019-05-01T08:54:12.968Z,12.53
2019-05-01T08:59:14.275Z,11.77
2019-05-01T09:04:18.501Z,12.03
2019-05-01T09:09:18.398Z,9.70
2019-05-01T09:14:20.569Z,14.10
2019-05-01T09:19:21.922Z,14.33
2019-05-01T09:24:28.005Z,13.33
2019-05-01T09:29:26.289Z,10.60
2019-05-01T09:34:27.649Z,9.70
2019-05-01T09:39:30.376Z,10.00
2019-05-01T09:44:31.729Z,11.20
2019-05-01T09:49:33.125Z,9.93
2019-05-01T09:54:34.489Z,8.43
2019-05-01T09:59:35.868Z,9.90
2019-05-01T10:04:37.271Z,8.70
2019-05-01T10:09:39.162Z,8.03
2019-05-01T10:14:42.197Z,12.00
2019-05-01T10:19:43.597Z,7.93
2019-05-01T10:24:44.910Z,9.37
2019-05-01T10:35:20.945Z,11.38
2019-05-01T10:40:22.387Z,8.87
2019-05-01T10:45:24.106Z,10.50
2019-05-01T10:50:25.438Z,12.50
2019-05-01T10:55:27.783Z,9.30
2019-05-01T11:00:34.052Z,10.47
2019-05-01T11:05:36.091Z,11.90
2019-05-01T11:10:37.817Z,9.40
2019-05-01T11:15:39.158Z,8.77
2019-05-01T11:20:40.531Z,10.83
2019-05-01T11:25:44.632Z,7.93
2019-05-01T11:30:44.106Z,12.40
2019-05-01T11:41:14.956Z,11.20
2019-05-01T11:46:17.039Z,10.57
2019-05-01T11:51:18.432Z,9.13
2019-05-01T11:56:19.797Z,7.93
2019-05-01T12:01:21.165Z,11.67
2019-05-01T12:06:23.337Z,9.73
2019-05-01T12:11:23.918Z,8.73
2019-05-01T12:16:31.505Z,7.43
2019-05-01T12:21:32.841Z,6.17
2019-05-01T12:26:34.903Z,10.47
2019-05-01T12:31:36.368Z,10.07
2019-05-01T12:36:37.743Z,8.50
2019-05-01T12:41:42.985Z,12.03
2019-05-01T12:46:50.473Z,6.33
2019-05-01T12:51:52.139Z,7.07
2019-05-01T12:56:53.554Z,7.07
2019-05-01T13:01:55.776Z,11.07
2019-05-01T13:06:57.163Z,8.53
2019-05-01T13:11:58.520Z,6.40
2019-05-01T13:17:00.528Z,10.20
2019-05-01T13:22:01.869Z,8.60
2019-05-01T13:27:03.353Z,7.20
2019-05-01T13:37:32.554Z,9.02
2019-05-01T13:42:33.870Z,7.30
2019-05-01T13:47:35.220Z,6.93
2019-05-01T13:52:36.591Z,10.33
2019-05-01T13:57:38.033Z,6.87
2019-05-01T14:02:39.376Z,8.77
2019-05-01T14:07:40.696Z,9.07
2019-05-01T14:12:42.024Z,10.60
2019-05-01T14:17:46.057Z,8.37
2019-05-01T14:22:49.556Z,9.53
2019-05-01T14:27:50.914Z,9.23
2019-05-01T14:32:52.231Z,8.43
2019-05-01T14:37:53.601Z,8.73
2019-05-01T14:42:54.947Z,7.73
2019-05-01T14:47:56.971Z,7.27
2019-05-01T14:52:58.340Z,8.13
2019-05-01T14:57:59.661Z,10.73
2019-05-01T15:03:00.992Z,7.32
2019-05-01T15:08:02.358Z,8.88
2019-05-01T15:18:40.281Z,8.43
2019-05-01T15:23:53.024Z,8.95
2019-05-01T15:28:43.344Z,8.50
2019-05-01T15:33:44.656Z,8.00
2019-05-01T15:38:46.012Z,7.07
2019-05-01T15:43:53.187Z,6.30
2019-05-01T15:48:54.516Z,6.60
2019-05-01T15:53:55.848Z,9.63
2019-05-01T15:58:57.187Z,8.17
2019-05-01T16:03:58.619Z,7.77
2019-05-01T16:09:00.021Z,7.40
2019-05-01T16:14:01.378Z,7.77
2019-05-01T16:19:02.834Z,7.63
2019-05-01T16:24:04.180Z,7.47
2019-05-01T16:29:05.500Z,7.97
2019-05-01T16:34:06.833Z,10.37
2019-05-01T16:39:13.244Z,8.57
2019-05-01T16:44:14.516Z,7.53
2019-05-01T16:49:16.570Z,5.20
2019-05-01T16:54:17.882Z,7.13
2019-05-01T16:59:20.106Z,8.67
2019-05-01T17:10:07.059Z,10.27
2019-05-01T17:15:08.405Z,8.27
2019-05-01T17:20:09.747Z,7.87
2019-05-01T17:25:11.878Z,8.27
2019-05-01T17:30:16.081Z,6.17
2019-05-01T17:35:17.471Z,7.23
2019-05-01T17:40:18.854Z,7.03
2019-05-01T17:45:20.221Z,7.20
2019-05-01T17:50:22.407Z,6.13
2019-05-01T17:55:23.694Z,5.77
2019-05-01T18:00:31.952Z,5.83
2019-05-01T18:05:33.254Z,7.03
2019-05-01T18:10:38.520Z,8.50
2019-05-01T18:15:35.923Z,7.07
2019-05-01T18:20:38.045Z,6.70
2019-05-01T18:25:39.430Z,10.50
2019-05-01T18:30:40.788Z,7.97
2019-05-01T18:35:44.901Z,9.27
2019-05-01T18:40:43.521Z,8.67
2019-05-01T18:45:45.749Z,8.67
2019-05-01T18:50:49.498Z,9.27
2019-05-01T18:55:49.255Z,11.53
2019-05-01T19:00:50.697Z,7.67
2019-05-01T19:05:52.117Z,9.47
2019-05-01T19:10:54.281Z,9.80
2019-05-01T19:15:55.761Z,9.93
2019-05-01T19:20:59.661Z,7.97
2019-05-01T19:26:04.917Z,9.50
2019-05-01T19:31:00.041Z,12.13
2019-05-01T19:36:02.508Z,12.30
2019-05-01T19:41:08.342Z,6.73
2019-05-01T19:46:05.028Z,8.00
2019-05-01T19:51:06.252Z,18.30
2019-05-01T19:56:08.315Z,14.07
2019-05-01T20:01:09.690Z,11.53
2019-05-01T20:06:11.773Z,12.90
2019-05-01T20:11:13.819Z,9.83
2019-05-01T20:16:15.222Z,9.43
2019-05-01T20:21:17.297Z,10.90
2019-05-01T20:26:19.539Z,11.90
2019-05-01T20:31:22.863Z,10.67
2019-05-01T20:36:23.047Z,8.33
2019-05-01T20:41:24.420Z,9.77
2019-05-01T20:46:27.648Z,11.87
2019-05-01T20:51:27.123Z,9.53
2019-05-01T20:56:29.391Z,11.73
2019-05-01T21:01:30.735Z,10.43
2019-05-01T21:06:33.831Z,8.77
2019-05-01T21:11:35.181Z,9.13
2019-05-01T21:16:37.872Z,7.93
2019-05-01T21:21:37.857Z,8.53
2019-05-01T21:26:39.727Z,9.00
2019-05-01T21:31:41.050Z,8.07
2019-05-01T21:36:42.372Z,12.23
2019-05-01T21:41:44.449Z,10.43
2019-05-01T21:46:46.509Z,8.37
2019-05-01T21:51:47.843Z,9.47
2019-05-01T21:56:49.178Z,8.73
2019-05-01T22:01:50.512Z,7.73
2019-05-01T22:06:53.538Z,9.30
2019-05-01T22:11:53.217Z,10.50
2019-05-01T22:16:56.850Z,7.33
2019-05-01T22:27:27.780Z,9.48
2019-05-01T22:32:32.394Z,10.37
2019-05-01T22:37:31.169Z,6.77
2019-05-01T22:42:32.538Z,7.50
2019-05-01T22:47:35.805Z,8.17
2019-05-01T22:52:37.144Z,7.33
2019-05-01T22:57:39.238Z,6.87
2019-05-01T23:02:41.313Z,7.23
2019-05-01T23:07:43.380Z,6.93
2019-05-01T23:12:45.459Z,9.30
2019-05-01T23:17:46.797Z,7.30
2019-05-01T23:22:48.129Z,8.40
2019-05-01T23:27:49.490Z,7.00
2019-05-01T23:32:50.843Z,8.83
2019-05-01T23:37:52.197Z,6.27
2019-05-01T23:42:53.998Z,6.63
2019-05-01T23:47:55.035Z,6.90
2019-05-01T23:53:35.753Z,5.53
2019-05-01T23:59:16.799Z,7.70
